sensor_id;sensor_type;location;lat;lon;timestamp;pressure;altitude;pressure_sealevel;temperature;humidity
36502;BME280;25393;46.108;3.390;2023-05-09T00:01:38;98286.09;;;14.67;100.00
36502;BME280;25393;46.108;3.390;2023-05-09T00:04:06;98270.94;;;14.53;100.00
36502;BME280;25393;46.108;3.390;2023-05-09T00:06:33;98287.38;;;14.71;100.00
36502;BME280;25393;46.108;3.390;2023-05-09T00:09:00;98264.59;;;14.90;100.00
36502;BME280;25393;46.108;3.390;2023-05-09T00:11:26;98260.84;;;14.84;100.00
36502;BME280;25393;46.108;3.390;2023-05-09T00:13:53;98255.78;;;14.75;100.00
36502;BME280;25393;46.108;3.390;2023-05-09T00:16:20;98252.31;;;14.95;100.00
36502;BME280;25393;46.108;3.390;2023-05-09T00:18:49;98213.88;;;14.69;100.00
36502;BME280;25393;46.108;3.390;2023-05-09T00:21:16;98215.66;;;14.62;100.00
36502;BME280;25393;46.108;3.390;2023-05-09T00:23:42;98228.66;;;14.71;100.00
36502;BME280;25393;46.108;3.390;2023-05-09T00:26:11;98180.66;;;14.50;100.00
36502;BME280;25393;46.108;3.390;2023-05-09T00:28:38;98237.00;;;14.62;100.00
36502;BME280;25393;46.108;3.390;2023-05-09T00:31:04;98235.41;;;14.46;100.00
36502;BME280;25393;46.108;3.390;2023-05-09T00:33:31;98230.19;;;14.38;100.00
36502;BME280;25393;46.108;3.390;2023-05-09T00:35:58;98213.81;;;14.26;100.00
36502;BME280;25393;46.108;3.390;2023-05-09T00:38:24;98200.88;;;14.09;100.00
36502;BME280;25393;46.108;3.390;2023-05-09T00:40:51;98223.31;;;14.14;100.00
36502;BME280;25393;46.108;3.390;2023-05-09T00:43:17;98213.66;;;14.13;100.00
36502;BME280;25393;46.108;3.390;2023-05-09T00:45:44;98217.81;;;14.01;100.00
36502;BME280;25393;46.108;3.390;2023-05-09T00:48:14;98244.88;;;14.19;100.00
36502;BME280;25393;46.108;3.390;2023-05-09T00:50:43;98218.63;;;14.16;100.00
36502;BME280;25393;46.108;3.390;2023-05-09T00:53:13;98195.13;;;13.90;100.00
36502;BME280;25393;46.108;3.390;2023-05-09T00:55:40;98200.72;;;13.95;100.00
36502;BME280;25393;46.108;3.390;2023-05-09T00:58:06;98202.94;;;13.92;100.00
36502;BME280;25393;46.108;3.390;2023-05-09T01:00:33;98204.41;;;13.94;100.00
36502;BME280;25393;46.108;3.390;2023-05-09T01:03:00;98190.91;;;13.81;100.00
36502;BME280;25393;46.108;3.390;2023-05-09T01:05:43;98220.47;;;14.01;100.00
36502;BME280;25393;46.108;3.390;2023-05-09T01:11:08;98188.63;;;13.78;100.00
36502;BME280;25393;46.108;3.390;2023-05-09T01:16:46;98218.06;;;14.21;100.00
36502;BME280;25393;46.108;3.390;2023-05-09T01:19:43;98219.13;;;14.26;100.00
36502;BME280;25393;46.108;3.390;2023-05-09T01:22:21;98189.78;;;14.05;100.00
36502;BME280;25393;46.108;3.390;2023-05-09T01:25:16;98203.06;;;14.34;100.00
36502;BME280;25393;46.108;3.390;2023-05-09T01:27:57;98209.47;;;14.25;100.00
36502;BME280;25393;46.108;3.390;2023-05-09T01:30:27;98193.81;;;14.01;100.00
36502;BME280;25393;46.108;3.390;2023-05-09T01:32:58;98195.41;;;13.95;100.00
36502;BME280;25393;46.108;3.390;2023-05-09T01:35:28;98173.94;;;13.82;100.00
36502;BME280;25393;46.108;3.390;2023-05-09T01:37:57;98185.22;;;13.84;100.00
36502;BME280;25393;46.108;3.390;2023-05-09T01:40:27;98202.19;;;13.98;100.00
36502;BME280;25393;46.108;3.390;2023-05-09T01:42:59;98172.44;;;13.65;100.00
36502;BME280;25393;46.108;3.390;2023-05-09T01:45:27;98198.44;;;13.78;100.00
36502;BME280;25393;46.108;3.390;2023-05-09T01:47:56;98160.53;;;13.61;100.00
36502;BME280;25393;46.108;3.390;2023-05-09T01:50:24;98154.63;;;13.66;100.00
36502;BME280;25393;46.108;3.390;2023-05-09T01:52:55;98178.69;;;13.87;100.00
36502;BME280;25393;46.108;3.390;2023-05-09T01:55:26;98179.41;;;13.95;100.00
36502;BME280;25393;46.108;3.390;2023-05-09T01:57:54;98179.22;;;13.97;100.00
36502;BME280;25393;46.108;3.390;2023-05-09T02:00:23;98168.31;;;13.92;100.00
36502;BME280;25393;46.108;3.390;2023-05-09T02:02:54;98162.69;;;13.87;100.00
36502;BME280;25393;46.108;3.390;2023-05-09T02:05:25;98180.22;;;14.11;100.00
36502;BME280;25393;46.108;3.390;2023-05-09T02:07:54;98150.81;;;14.04;100.00
36502;BME280;25393;46.108;3.390;2023-05-09T02:10:23;98172.78;;;14.06;100.00
36502;BME280;25393;46.108;3.390;2023-05-09T02:12:54;98156.50;;;14.01;100.00
36502;BME280;25393;46.108;3.390;2023-05-09T02:15:22;98167.81;;;14.03;100.00
36502;BME280;25393;46.108;3.390;2023-05-09T02:17:49;98151.22;;;13.86;100.00
36502;BME280;25393;46.108;3.390;2023-05-09T02:20:23;98142.88;;;13.75;100.00
36502;BME280;25393;46.108;3.390;2023-05-09T02:22:54;98178.22;;;13.98;100.00
36502;BME280;25393;46.108;3.390;2023-05-09T02:25:24;98155.63;;;13.79;100.00
36502;BME280;25393;46.108;3.390;2023-05-09T02:27:55;98149.16;;;13.67;100.00
36502;BME280;25393;46.108;3.390;2023-05-09T02:30:25;98153.34;;;13.76;100.00
36502;BME280;25393;46.108;3.390;2023-05-09T02:33:06;98154.91;;;13.85;100.00
36502;BME280;25393;46.108;3.390;2023-05-09T02:35:34;98177.13;;;13.92;100.00
36502;BME280;25393;46.108;3.390;2023-05-09T02:38:01;98140.22;;;13.75;100.00
36502;BME280;25393;46.108;3.390;2023-05-09T02:40:29;98160.75;;;13.95;100.00
36502;BME280;25393;46.108;3.390;2023-05-09T02:42:56;98127.47;;;13.70;100.00
36502;BME280;25393;46.108;3.390;2023-05-09T02:45:25;98126.84;;;13.68;100.00
36502;BME280;25393;46.108;3.390;2023-05-09T02:47:55;98147.75;;;13.71;100.00
36502;BME280;25393;46.108;3.390;2023-05-09T02:50:25;98148.94;;;13.69;100.00
36502;BME280;25393;46.108;3.390;2023-05-09T02:52:55;98133.63;;;13.56;100.00
36502;BME280;25393;46.108;3.390;2023-05-09T02:55:24;98161.34;;;13.76;100.00
36502;BME280;25393;46.108;3.390;2023-05-09T02:57:52;98169.06;;;13.86;100.00
36502;BME280;25393;46.108;3.390;2023-05-09T03:00:37;98140.94;;;13.69;100.00
36502;BME280;25393;46.108;3.390;2023-05-09T03:03:04;98147.00;;;13.77;100.00
36502;BME280;25393;46.108;3.390;2023-05-09T03:05:31;98130.78;;;13.58;100.00
36502;BME280;25393;46.108;3.390;2023-05-09T03:07:57;98163.91;;;13.84;100.00
36502;BME280;25393;46.108;3.390;2023-05-09T03:10:27;98146.72;;;13.72;100.00
36502;BME280;25393;46.108;3.390;2023-05-09T03:12:56;98148.84;;;13.77;100.00
36502;BME280;25393;46.108;3.390;2023-05-09T03:15:26;98164.97;;;13.90;100.00
36502;BME280;25393;46.108;3.390;2023-05-09T03:17:52;98150.03;;;13.89;100.00
36502;BME280;25393;46.108;3.390;2023-05-09T03:20:21;98166.00;;;14.04;100.00
36502;BME280;25393;46.108;3.390;2023-05-09T03:22:48;98118.06;;;13.89;100.00
36502;BME280;25393;46.108;3.390;2023-05-09T03:25:15;98150.44;;;14.07;100.00
36502;BME280;25393;46.108;3.390;2023-05-09T03:27:42;98148.06;;;13.97;100.00
36502;BME280;25393;46.108;3.390;2023-05-09T03:30:09;98138.63;;;13.95;100.00
36502;BME280;25393;46.108;3.390;2023-05-09T03:32:36;98145.22;;;13.99;100.00
36502;BME280;25393;46.108;3.390;2023-05-09T03:35:03;98106.88;;;13.79;100.00
36502;BME280;25393;46.108;3.390;2023-05-09T03:37:29;98110.69;;;13.91;100.00
36502;BME280;25393;46.108;3.390;2023-05-09T03:39:59;98134.38;;;14.22;100.00
36502;BME280;25393;46.108;3.390;2023-05-09T03:42:28;98088.09;;;13.87;100.00
36502;BME280;25393;46.108;3.390;2023-05-09T03:45:01;98144.28;;;14.07;100.00
36502;BME280;25393;46.108;3.390;2023-05-09T03:47:27;98135.94;;;13.95;100.00
36502;BME280;25393;46.108;3.390;2023-05-09T03:49:54;98123.19;;;13.90;100.00
36502;BME280;25393;46.108;3.390;2023-05-09T03:52:22;98114.53;;;14.03;100.00
36502;BME280;25393;46.108;3.390;2023-05-09T03:54:49;98109.59;;;14.00;100.00
36502;BME280;25393;46.108;3.390;2023-05-09T03:57:16;98104.69;;;14.04;100.00
36502;BME280;25393;46.108;3.390;2023-05-09T03:59:42;98093.16;;;13.96;100.00
36502;BME280;25393;46.108;3.390;2023-05-09T04:02:09;98061.69;;;13.71;100.00
36502;BME280;25393;46.108;3.390;2023-05-09T04:04:36;98111.22;;;14.01;100.00
36502;BME280;25393;46.108;3.390;2023-05-09T04:07:03;98070.97;;;13.75;100.00
36502;BME280;25393;46.108;3.390;2023-05-09T04:09:29;98082.69;;;13.80;100.00
36502;BME280;25393;46.108;3.390;2023-05-09T04:11:56;98087.28;;;14.08;100.00
36502;BME280;25393;46.108;3.390;2023-05-09T04:14:25;98090.22;;;14.13;100.00
36502;BME280;25393;46.108;3.390;2023-05-09T04:16:54;98103.03;;;14.02;100.00
36502;BME280;25393;46.108;3.390;2023-05-09T04:19:21;98103.03;;;14.02;100.00
36502;BME280;25393;46.108;3.390;2023-05-09T04:21:47;98073.56;;;13.68;100.00
36502;BME280;25393;46.108;3.390;2023-05-09T04:24:14;98100.88;;;13.91;100.00
36502;BME280;25393;46.108;3.390;2023-05-09T04:26:40;98099.03;;;13.92;100.00
36502;BME280;25393;46.108;3.390;2023-05-09T04:29:07;98097.56;;;13.89;100.00
36502;BME280;25393;46.108;3.390;2023-05-09T04:31:34;98092.91;;;13.77;100.00
36502;BME280;25393;46.108;3.390;2023-05-09T04:34:01;98092.47;;;13.73;100.00
36502;BME280;25393;46.108;3.390;2023-05-09T04:36:31;98090.00;;;13.72;100.00
36502;BME280;25393;46.108;3.390;2023-05-09T04:39:02;98064.69;;;13.61;100.00
36502;BME280;25393;46.108;3.390;2023-05-09T04:41:30;98080.59;;;13.76;100.00
36502;BME280;25393;46.108;3.390;2023-05-09T04:43:57;98071.91;;;13.67;100.00
36502;BME280;25393;46.108;3.390;2023-05-09T04:46:25;98078.69;;;13.70;100.00
36502;BME280;25393;46.108;3.390;2023-05-09T04:48:52;98076.47;;;13.73;100.00
36502;BME280;25393;46.108;3.390;2023-05-09T04:51:19;98068.06;;;13.55;100.00
36502;BME280;25393;46.108;3.390;2023-05-09T04:53:45;98062.22;;;13.45;100.00
36502;BME280;25393;46.108;3.390;2023-05-09T04:56:12;98062.41;;;13.43;100.00
36502;BME280;25393;46.108;3.390;2023-05-09T04:58:38;98048.91;;;13.30;100.00
36502;BME280;25393;46.108;3.390;2023-05-09T05:01:05;98058.16;;;13.49;100.00
36502;BME280;25393;46.108;3.390;2023-05-09T05:03:32;98060.66;;;13.50;100.00
36502;BME280;25393;46.108;3.390;2023-05-09T05:05:58;98054.75;;;13.55;100.00
36502;BME280;25393;46.108;3.390;2023-05-09T05:08:27;98051.06;;;13.56;100.00
36502;BME280;25393;46.108;3.390;2023-05-09T05:10:54;98028.31;;;13.54;100.00
36502;BME280;25393;46.108;3.390;2023-05-09T05:13:21;98031.06;;;13.60;100.00
36502;BME280;25393;46.108;3.390;2023-05-09T05:15:48;98048.28;;;13.79;100.00
36502;BME280;25393;46.108;3.390;2023-05-09T05:18:15;98052.63;;;13.86;100.00
36502;BME280;25393;46.108;3.390;2023-05-09T05:20:41;98041.63;;;13.89;100.00
36502;BME280;25393;46.108;3.390;2023-05-09T05:23:08;98035.59;;;14.02;100.00
36502;BME280;25393;46.108;3.390;2023-05-09T05:25:35;98045.47;;;14.29;100.00
36502;BME280;25393;46.108;3.390;2023-05-09T05:28:05;98043.47;;;14.31;100.00
36502;BME280;25393;46.108;3.390;2023-05-09T05:30:33;97988.13;;;14.12;100.00
36502;BME280;25393;46.108;3.390;2023-05-09T05:33:00;98020.66;;;14.29;100.00
36502;BME280;25393;46.108;3.390;2023-05-09T05:35:29;98025.53;;;14.25;100.00
36502;BME280;25393;46.108;3.390;2023-05-09T05:37:55;98008.75;;;14.25;100.00
36502;BME280;25393;46.108;3.390;2023-05-09T05:40:22;98013.47;;;14.29;100.00
36502;BME280;25393;46.108;3.390;2023-05-09T05:42:49;98029.19;;;14.39;100.00
36502;BME280;25393;46.108;3.390;2023-05-09T05:45:15;98021.28;;;14.31;100.00
36502;BME280;25393;46.108;3.390;2023-05-09T05:47:42;98016.09;;;14.44;100.00
36502;BME280;25393;46.108;3.390;2023-05-09T05:50:09;97998.34;;;14.58;100.00
36502;BME280;25393;46.108;3.390;2023-05-09T05:52:38;98020.31;;;14.87;100.00
36502;BME280;25393;46.108;3.390;2023-05-09T05:55:05;98003.84;;;14.84;100.00
36502;BME280;25393;46.108;3.390;2023-05-09T05:57:32;98012.75;;;14.97;100.00
36502;BME280;25393;46.108;3.390;2023-05-09T06:00:00;98014.03;;;15.02;100.00
36502;BME280;25393;46.108;3.390;2023-05-09T06:02:30;97988.63;;;14.78;100.00
36502;BME280;25393;46.108;3.390;2023-05-09T06:04:56;97983.34;;;14.84;100.00
36502;BME280;25393;46.108;3.390;2023-05-09T06:07:23;97989.34;;;14.99;100.00
36502;BME280;25393;46.108;3.390;2023-05-09T06:09:49;97987.13;;;15.03;100.00
36502;BME280;25393;46.108;3.390;2023-05-09T06:12:16;97999.94;;;15.21;100.00
36502;BME280;25393;46.108;3.390;2023-05-09T06:14:43;97985.94;;;15.12;100.00
36502;BME280;25393;46.108;3.390;2023-05-09T06:17:09;97962.50;;;15.08;100.00
36502;BME280;25393;46.108;3.390;2023-05-09T06:19:36;97987.84;;;15.25;100.00
36502;BME280;25393;46.108;3.390;2023-05-09T06:22:06;97988.09;;;15.36;100.00
36502;BME280;25393;46.108;3.390;2023-05-09T06:24:35;97984.44;;;15.44;100.00
36502;BME280;25393;46.108;3.390;2023-05-09T06:27:04;97989.19;;;15.48;100.00
36502;BME280;25393;46.108;3.390;2023-05-09T06:29:30;97961.97;;;15.32;100.00
36502;BME280;25393;46.108;3.390;2023-05-09T06:31:57;97985.91;;;15.53;100.00
36502;BME280;25393;46.108;3.390;2023-05-09T06:34:23;97984.03;;;15.47;100.00
36502;BME280;25393;46.108;3.390;2023-05-09T06:36:50;97971.84;;;15.38;100.00
36502;BME280;25393;46.108;3.390;2023-05-09T06:39:17;97988.81;;;15.58;100.00
36502;BME280;25393;46.108;3.390;2023-05-09T06:41:43;97969.06;;;15.66;100.00
36502;BME280;25393;46.108;3.390;2023-05-09T06:44:09;97969.53;;;15.82;100.00
36502;BME280;25393;46.108;3.390;2023-05-09T06:46:36;97960.50;;;15.96;100.00
36502;BME280;25393;46.108;3.390;2023-05-09T06:49:06;97960.94;;;16.07;100.00
36502;BME280;25393;46.108;3.390;2023-05-09T06:51:35;97951.47;;;16.17;100.00
36502;BME280;25393;46.108;3.390;2023-05-09T06:54:05;97958.47;;;16.31;100.00
36502;BME280;25393;46.108;3.390;2023-05-09T06:56:32;97948.56;;;16.45;100.00
36502;BME280;25393;46.108;3.390;2023-05-09T06:59:01;97922.63;;;16.52;100.00
36502;BME280;25393;46.108;3.390;2023-05-09T07:01:30;97931.25;;;16.54;100.00
36502;BME280;25393;46.108;3.390;2023-05-09T07:03:57;97940.75;;;16.57;100.00
36502;BME280;25393;46.108;3.390;2023-05-09T07:06:24;97907.84;;;16.30;100.00
36502;BME280;25393;46.108;3.390;2023-05-09T07:08:51;97930.88;;;16.37;100.00
36502;BME280;25393;46.108;3.390;2023-05-09T07:11:18;97906.84;;;16.18;100.00
36502;BME280;25393;46.108;3.390;2023-05-09T07:13:46;97928.25;;;16.11;100.00
36502;BME280;25393;46.108;3.390;2023-05-09T07:16:13;97922.44;;;16.40;100.00
36502;BME280;25393;46.108;3.390;2023-05-09T07:18:39;97921.00;;;16.44;100.00
36502;BME280;25393;46.108;3.390;2023-05-09T07:21:06;97914.63;;;16.45;100.00
36502;BME280;25393;46.108;3.390;2023-05-09T07:23:35;97903.72;;;16.34;100.00
36502;BME280;25393;46.108;3.390;2023-05-09T07:26:05;97917.72;;;16.29;100.00
36502;BME280;25393;46.108;3.390;2023-05-09T07:28:32;97905.56;;;16.40;100.00
36502;BME280;25393;46.108;3.390;2023-05-09T07:30:59;97890.50;;;16.65;100.00
36502;BME280;25393;46.108;3.390;2023-05-09T07:33:26;97909.19;;;16.85;100.00
36502;BME280;25393;46.108;3.390;2023-05-09T07:35:53;97878.16;;;16.71;99.81
36502;BME280;25393;46.108;3.390;2023-05-09T07:38:20;97893.53;;;16.82;100.00
36502;BME280;25393;46.108;3.390;2023-05-09T07:40:46;97889.44;;;16.79;100.00
36502;BME280;25393;46.108;3.390;2023-05-09T07:43:13;97876.28;;;16.71;100.00
36502;BME280;25393;46.108;3.390;2023-05-09T07:45:39;97865.19;;;16.74;100.00
36502;BME280;25393;46.108;3.390;2023-05-09T07:48:06;97867.94;;;16.99;100.00
36502;BME280;25393;46.108;3.390;2023-05-09T07:50:36;97865.97;;;17.19;100.00
36502;BME280;25393;46.108;3.390;2023-05-09T07:53:05;97860.34;;;17.34;98.75
36502;BME280;25393;46.108;3.390;2023-05-09T07:55:32;97874.78;;;17.64;100.00
36502;BME280;25393;46.108;3.390;2023-05-09T07:58:02;97878.44;;;17.70;98.80
36502;BME280;25393;46.108;3.390;2023-05-09T08:00:29;97861.44;;;17.58;96.96
36502;BME280;25393;46.108;3.390;2023-05-09T08:02:56;97873.38;;;17.62;100.00
36502;BME280;25393;46.108;3.390;2023-05-09T08:05:23;97869.38;;;17.71;99.69
36502;BME280;25393;46.108;3.390;2023-05-09T08:07:49;97846.19;;;17.58;99.50
36502;BME280;25393;46.108;3.390;2023-05-09T08:10:16;97872.38;;;17.56;100.00
36502;BME280;25393;46.108;3.390;2023-05-09T08:12:42;97855.47;;;17.49;100.00
36502;BME280;25393;46.108;3.390;2023-05-09T08:15:09;97839.84;;;17.46;100.00
36502;BME280;25393;46.108;3.390;2023-05-09T08:17:38;97859.69;;;17.70;100.00
36502;BME280;25393;46.108;3.390;2023-05-09T08:20:05;97851.06;;;17.68;100.00
36502;BME280;25393;46.108;3.390;2023-05-09T08:22:38;97851.22;;;17.73;100.00
36502;BME280;25393;46.108;3.390;2023-05-09T08:25:09;97831.81;;;17.46;100.00
36502;BME280;25393;46.108;3.390;2023-05-09T08:27:35;97845.47;;;17.38;100.00
36502;BME280;25393;46.108;3.390;2023-05-09T08:30:05;97838.53;;;17.30;100.00
36502;BME280;25393;46.108;3.390;2023-05-09T08:32:32;97806.06;;;17.14;100.00
36502;BME280;25393;46.108;3.390;2023-05-09T08:35:00;97832.16;;;17.25;100.00
36502;BME280;25393;46.108;3.390;2023-05-09T08:37:27;97829.66;;;17.30;100.00
36502;BME280;25393;46.108;3.390;2023-05-09T08:39:54;97830.31;;;17.25;100.00
36502;BME280;25393;46.108;3.390;2023-05-09T08:42:21;97831.84;;;17.08;100.00
36502;BME280;25393;46.108;3.390;2023-05-09T08:44:51;97806.78;;;17.03;100.00
36502;BME280;25393;46.108;3.390;2023-05-09T08:47:18;97822.00;;;17.33;100.00
36502;BME280;25393;46.108;3.390;2023-05-09T08:49:46;97825.97;;;17.31;100.00
36502;BME280;25393;46.108;3.390;2023-05-09T08:52:14;97769.69;;;17.06;100.00
36502;BME280;25393;46.108;3.390;2023-05-09T08:54:47;97802.66;;;17.31;100.00
36502;BME280;25393;46.108;3.390;2023-05-09T08:57:14;97820.00;;;17.54;100.00
36502;BME280;25393;46.108;3.390;2023-05-09T08:59:41;97785.28;;;17.40;100.00
36502;BME280;25393;46.108;3.390;2023-05-09T09:02:09;97784.13;;;17.30;100.00
36502;BME280;25393;46.108;3.390;2023-05-09T09:04:40;97784.84;;;17.43;100.00
36502;BME280;25393;46.108;3.390;2023-05-09T09:07:07;97803.78;;;17.48;100.00
36502;BME280;25393;46.108;3.390;2023-05-09T09:09:36;97770.13;;;17.28;100.00
36502;BME280;25393;46.108;3.390;2023-05-09T09:12:10;97808.47;;;17.53;100.00
36502;BME280;25393;46.108;3.390;2023-05-09T09:14:41;97804.75;;;17.54;100.00
36502;BME280;25393;46.108;3.390;2023-05-09T09:17:16;97780.50;;;17.42;100.00
36502;BME280;25393;46.108;3.390;2023-05-09T09:19:50;97793.09;;;17.42;100.00
36502;BME280;25393;46.108;3.390;2023-05-09T09:22:20;97810.25;;;17.66;100.00
36502;BME280;25393;46.108;3.390;2023-05-09T09:24:48;97769.66;;;17.37;100.00
36502;BME280;25393;46.108;3.390;2023-05-09T09:27:15;97786.66;;;17.49;100.00
36502;BME280;25393;46.108;3.390;2023-05-09T09:29:43;97777.44;;;17.39;100.00
36502;BME280;25393;46.108;3.390;2023-05-09T09:32:09;97767.34;;;17.41;100.00
36502;BME280;25393;46.108;3.390;2023-05-09T09:34:41;97809.13;;;17.80;100.00
36502;BME280;25393;46.108;3.390;2023-05-09T09:37:07;97805.81;;;17.78;100.00
36502;BME280;25393;46.108;3.390;2023-05-09T09:39:37;97791.38;;;17.79;100.00
36502;BME280;25393;46.108;3.390;2023-05-09T09:42:10;97820.22;;;18.02;100.00
36502;BME280;25393;46.108;3.390;2023-05-09T09:44:37;97802.34;;;17.95;100.00
36502;BME280;25393;46.108;3.390;2023-05-09T09:47:08;97811.00;;;17.98;100.00
36502;BME280;25393;46.108;3.390;2023-05-09T09:49:35;97770.84;;;17.66;100.00
36502;BME280;25393;46.108;3.390;2023-05-09T09:52:01;97792.66;;;17.94;100.00
36502;BME280;25393;46.108;3.390;2023-05-09T09:54:30;97786.88;;;17.98;100.00
36502;BME280;25393;46.108;3.390;2023-05-09T09:57:06;97806.34;;;18.11;100.00
36502;BME280;25393;46.108;3.390;2023-05-09T09:59:35;97767.72;;;17.94;100.00
36502;BME280;25393;46.108;3.390;2023-05-09T10:02:06;97778.66;;;17.92;100.00
36502;BME280;25393;46.108;3.390;2023-05-09T10:04:37;97760.09;;;17.73;100.00
36502;BME280;25393;46.108;3.390;2023-05-09T10:07:08;97799.38;;;17.61;100.00
36502;BME280;25393;46.108;3.390;2023-05-09T10:09:40;97791.97;;;17.56;100.00
36502;BME280;25393;46.108;3.390;2023-05-09T10:12:08;97753.41;;;17.32;100.00
36502;BME280;25393;46.108;3.390;2023-05-09T10:14:35;97751.44;;;17.21;100.00
36502;BME280;25393;46.108;3.390;2023-05-09T10:17:04;97749.19;;;17.18;100.00
36502;BME280;25393;46.108;3.390;2023-05-09T10:19:31;97742.66;;;17.08;100.00
36502;BME280;25393;46.108;3.390;2023-05-09T10:22:09;97768.88;;;17.30;100.00
36502;BME280;25393;46.108;3.390;2023-05-09T10:24:46;97732.69;;;17.21;100.00
36502;BME280;25393;46.108;3.390;2023-05-09T10:27:14;97731.22;;;17.25;100.00
36502;BME280;25393;46.108;3.390;2023-05-09T10:30:00;97722.16;;;17.26;100.00
36502;BME280;25393;46.108;3.390;2023-05-09T10:35:27;97730.56;;;17.30;100.00
36502;BME280;25393;46.108;3.390;2023-05-09T10:37:55;97718.56;;;17.08;100.00
36502;BME280;25393;46.108;3.390;2023-05-09T10:40:29;97721.69;;;17.05;100.00
36502;BME280;25393;46.108;3.390;2023-05-09T10:42:57;97724.81;;;17.02;100.00
36502;BME280;25393;46.108;3.390;2023-05-09T10:45:24;97748.81;;;17.39;100.00
36502;BME280;25393;46.108;3.390;2023-05-09T10:47:52;97743.94;;;17.30;100.00
36502;BME280;25393;46.108;3.390;2023-05-09T10:50:22;97736.28;;;17.09;100.00
36502;BME280;25393;46.108;3.390;2023-05-09T10:53:08;97753.75;;;16.80;100.00
36502;BME280;25393;46.108;3.390;2023-05-09T10:56:04;97731.22;;;16.63;100.00
36502;BME280;25393;46.108;3.390;2023-05-09T10:58:36;97717.22;;;16.16;100.00
36502;BME280;25393;46.108;3.390;2023-05-09T11:01:08;97702.31;;;15.82;100.00
36502;BME280;25393;46.108;3.390;2023-05-09T11:03:53;97705.63;;;15.71;100.00
36502;BME280;25393;46.108;3.390;2023-05-09T11:06:51;97747.03;;;16.13;100.00
36502;BME280;25393;46.108;3.390;2023-05-09T11:11:57;97696.34;;;15.93;100.00
36502;BME280;25393;46.108;3.390;2023-05-09T11:14:49;97735.28;;;16.21;100.00
36502;BME280;25393;46.108;3.390;2023-05-09T11:17:39;97705.94;;;16.01;100.00
36502;BME280;25393;46.108;3.390;2023-05-09T11:20:09;97709.41;;;16.08;100.00
36502;BME280;25393;46.108;3.390;2023-05-09T11:22:43;97680.50;;;15.92;100.00
36502;BME280;25393;46.108;3.390;2023-05-09T11:25:50;97682.09;;;16.06;100.00
36502;BME280;25393;46.108;3.390;2023-05-09T11:29:12;97680.50;;;16.36;100.00
36502;BME280;25393;46.108;3.390;2023-05-09T11:32:18;97680.09;;;16.39;100.00
36502;BME280;25393;46.108;3.390;2023-05-09T11:35:06;97679.00;;;16.54;100.00
36502;BME280;25393;46.108;3.390;2023-05-09T11:38:02;97717.81;;;16.69;100.00
36502;BME280;25393;46.108;3.390;2023-05-09T11:40:43;97675.84;;;16.19;100.00
36502;BME280;25393;46.108;3.390;2023-05-09T11:43:35;97670.78;;;16.48;100.00
36502;BME280;25393;46.108;3.390;2023-05-09T11:46:12;97678.41;;;16.83;100.00
36502;BME280;25393;46.108;3.390;2023-05-09T11:48:58;97699.19;;;17.12;100.00
36502;BME280;25393;46.108;3.390;2023-05-09T11:51:59;97667.63;;;16.89;100.00
36502;BME280;25393;46.108;3.390;2023-05-09T11:54:54;97667.41;;;16.66;100.00
36502;BME280;25393;46.108;3.390;2023-05-09T12:08:12;97711.16;;;16.78;100.00
36502;BME280;25393;46.108;3.390;2023-05-09T12:10:44;97700.69;;;16.77;100.00
36502;BME280;25393;46.108;3.390;2023-05-09T12:13:16;97681.47;;;16.48;100.00
36502;BME280;25393;46.108;3.390;2023-05-09T12:16:17;97711.31;;;16.45;100.00
36502;BME280;25393;46.108;3.390;2023-05-09T12:19:36;97709.88;;;16.49;100.00
36502;BME280;25393;46.108;3.390;2023-05-09T12:22:12;97664.97;;;16.20;100.00
36502;BME280;25393;46.108;3.390;2023-05-09T12:25:06;97658.38;;;16.16;100.00
36502;BME280;25393;46.108;3.390;2023-05-09T12:28:23;97673.13;;;16.32;100.00
36502;BME280;25393;46.108;3.390;2023-05-09T12:31:28;97707.66;;;16.33;100.00
36502;BME280;25393;46.108;3.390;2023-05-09T12:34:26;97662.31;;;16.14;100.00
36502;BME280;25393;46.108;3.390;2023-05-09T12:36:55;97658.66;;;16.02;100.00
36502;BME280;25393;46.108;3.390;2023-05-09T12:39:41;97660.09;;;15.97;100.00
36502;BME280;25393;46.108;3.390;2023-05-09T12:42:13;97673.06;;;16.01;100.00
36502;BME280;25393;46.108;3.390;2023-05-09T12:45:06;97702.16;;;16.28;100.00
36502;BME280;25393;46.108;3.390;2023-05-09T12:47:33;97677.41;;;15.95;100.00
36502;BME280;25393;46.108;3.390;2023-05-09T12:50:04;97706.25;;;16.31;100.00
36502;BME280;25393;46.108;3.390;2023-05-09T12:52:50;97682.28;;;16.05;100.00
36502;BME280;25393;46.108;3.390;2023-05-09T12:55:34;97678.44;;;15.87;100.00
36502;BME280;25393;46.108;3.390;2023-05-09T12:58:37;97665.09;;;15.87;100.00
36502;BME280;25393;46.108;3.390;2023-05-09T13:04:34;97719.53;;;15.99;100.00
36502;BME280;25393;46.108;3.390;2023-05-09T13:25:24;97715.72;;;16.27;100.00
36502;BME280;25393;46.108;3.390;2023-05-09T13:28:05;97666.50;;;15.96;100.00
36502;BME280;25393;46.108;3.390;2023-05-09T13:30:58;97666.69;;;16.02;100.00
36502;BME280;25393;46.108;3.390;2023-05-09T13:33:26;97688.44;;;16.12;100.00
36502;BME280;25393;46.108;3.390;2023-05-09T13:35:55;97708.56;;;16.21;100.00
36502;BME280;25393;46.108;3.390;2023-05-09T13:38:22;97671.19;;;16.08;100.00
36502;BME280;25393;46.108;3.390;2023-05-09T13:40:49;97691.06;;;16.25;100.00
36502;BME280;25393;46.108;3.390;2023-05-09T13:43:15;97666.44;;;16.10;100.00
36502;BME280;25393;46.108;3.390;2023-05-09T13:45:42;97682.03;;;16.19;100.00
36502;BME280;25393;46.108;3.390;2023-05-09T13:48:14;97663.16;;;16.14;100.00
36502;BME280;25393;46.108;3.390;2023-05-09T13:50:46;97686.47;;;16.38;100.00
36502;BME280;25393;46.108;3.390;2023-05-09T13:53:13;97706.59;;;16.41;100.00
36502;BME280;25393;46.108;3.390;2023-05-09T13:55:43;97690.78;;;16.33;100.00